Time;durP1;ratioP1;P1;durP2;ratioP2;P2;SDS_P1;SDS_P2;PMS_P1;PMS_P2;Temp;Humidity;BMP_temperature;BMP_pressure;BME280_temperature;BME280_humidity;BME280_pressure;Samples;Min_cycle;Max_cycle;Signal;HPM_P1;HPM_P2
2023/03/03 00:01:54;;;;;;;1.50;1.40;;;;;;;-0.23;100.00;101267.19;4985419;28;20042;-71
2023/03/03 00:04:20;;;;;;;1.20;1.10;;;;;;;-0.20;100.00;101267.34;4993333;28;20057;-71
2023/03/03 00:06:45;;;;;;;1.30;1.20;;;;;;;-0.08;100.00;101264.44;4993527;28;20058;-71
2023/03/03 00:09:10;;;;;;;1.30;1.20;;;;;;;0.02;100.00;101263.19;4982605;28;20050;-71
2023/03/03 00:11:36;;;;;;;1.30;1.20;;;;;;;0.09;100.00;101254.88;4989438;28;20037;-71
2023/03/03 00:14:01;;;;;;;1.30;1.20;;;;;;;0.13;100.00;101268.09;4982065;28;20038;-71
2023/03/03 00:16:39;;;;;;;1.27;1.17;;;;;;;0.25;100.00;101265.19;4984559;28;20038;-74
2023/03/03 00:19:16;;;;;;;1.23;1.10;;;;;;;0.21;100.00;101261.56;4983294;28;20480;-74
2023/03/03 00:21:45;;;;;;;1.53;1.40;;;;;;;0.06;100.00;101259.94;4985131;28;20089;-74
2023/03/03 00:24:12;;;;;;;1.43;1.20;;;;;;;-0.04;100.00;101256.88;4985200;28;20049;-73
2023/03/03 00:26:40;;;;;;;1.30;1.20;;;;;;;-0.05;100.00;101262.03;4984832;28;20566;-74
2023/03/03 00:29:34;;;;;;;5.60;3.10;;;;;;;-0.20;100.00;101269.94;4985381;28;20099;-74
2023/03/03 00:32:14;;;;;;;1.30;1.20;;;;;;;-0.17;100.00;101272.69;4984357;28;20089;-74
2023/03/03 00:34:42;;;;;;;1.93;1.43;;;;;;;-0.05;100.00;101277.59;4985319;28;20480;-74
2023/03/03 00:37:25;;;;;;;2.77;1.83;;;;;;;-0.24;100.00;101274.09;4986031;28;20109;-74
2023/03/03 00:39:50;;;;;;;1.27;1.17;;;;;;;-0.52;100.00;101271.81;4983843;28;20528;-74
2023/03/03 00:42:17;;;;;;;2.47;2.27;;;;;;;-0.63;100.00;101277.25;4983065;28;20054;-74
2023/03/03 00:44:44;;;;;;;1.80;1.70;;;;;;;-0.74;100.00;101279.31;4982897;28;20044;-74
2023/03/03 00:47:30;;;;;;;2.20;1.73;;;;;;;-0.68;100.00;101271.88;4990553;28;20069;-73
2023/03/03 00:50:04;;;;;;;2.10;1.90;;;;;;;-0.73;100.00;101265.56;4986363;28;20548;-73
2023/03/03 00:52:34;;;;;;;1.60;1.50;;;;;;;-0.59;100.00;101264.53;4982209;28;20034;-73
2023/03/03 00:54:59;;;;;;;1.50;1.40;;;;;;;-0.46;100.00;101264.34;4991675;28;20031;-73
2023/03/03 00:57:24;;;;;;;1.33;1.23;;;;;;;-0.32;100.00;101261.53;4983306;28;20515;-73
2023/03/03 00:59:51;;;;;;;3.63;1.50;;;;;;;-0.20;100.00;101253.50;4983323;28;20134;-73
2023/03/03 01:02:16;;;;;;;1.20;1.10;;;;;;;-0.14;100.00;101265.03;4980349;28;20067;-74
2023/03/03 01:04:47;;;;;;;1.20;1.10;;;;;;;0.03;100.00;101259.75;4983415;28;20030;-73
2023/03/03 01:07:12;;;;;;;1.10;1.10;;;;;;;0.14;100.00;101258.59;4987108;28;20038;-73
2023/03/03 01:09:38;;;;;;;1.40;1.30;;;;;;;0.26;100.00;101264.34;4983542;28;20034;-74
2023/03/03 01:12:03;;;;;;;1.67;1.30;;;;;;;0.31;100.00;101260.25;4984813;28;20022;-74
2023/03/03 01:14:29;;;;;;;1.20;1.10;;;;;;;0.35;100.00;101259.59;4983866;28;20026;-73
2023/03/03 01:16:54;;;;;;;1.10;1.10;;;;;;;0.28;100.00;101257.53;4985612;28;20120;-74
2023/03/03 01:19:19;;;;;;;1.30;1.20;;;;;;;0.32;100.00;101254.28;4982241;28;20038;-73
2023/03/03 01:21:45;;;;;;;1.20;1.10;;;;;;;0.32;100.00;101249.06;4983207;28;20038;-73
2023/03/03 01:24:10;;;;;;;1.50;1.40;;;;;;;0.23;100.00;101251.22;4982560;28;20041;-74
2023/03/03 01:26:35;;;;;;;1.40;1.20;;;;;;;0.05;100.00;101251.22;4984429;28;20073;-73
2023/03/03 01:29:01;;;;;;;1.40;1.30;;;;;;;-0.20;100.00;101254.38;4983726;28;20046;-73
2023/03/03 01:31:26;;;;;;;1.00;1.00;;;;;;;-0.37;100.00;101258.72;4984651;28;20082;-73
2023/03/03 01:33:51;;;;;;;1.70;1.40;;;;;;;-0.53;100.00;101263.97;4983718;28;20092;-73
2023/03/03 01:36:25;;;;;;;1.30;1.20;;;;;;;-0.54;100.00;101260.47;4987231;28;20042;-73
2023/03/03 01:38:50;;;;;;;1.23;1.13;;;;;;;-0.57;100.00;101259.44;4984858;28;20034;-74
2023/03/03 01:41:17;;;;;;;1.30;1.20;;;;;;;-0.43;100.00;101254.94;4979797;28;20034;-74
2023/03/03 01:43:46;;;;;;;1.00;1.00;;;;;;;-0.23;100.00;101254.22;4982860;28;20034;-73
2023/03/03 01:46:37;;;;;;;3.37;2.50;;;;;;;-0.10;100.00;101243.63;4984368;28;20523;-74
2023/03/03 01:49:09;;;;;;;2.37;2.17;;;;;;;-0.06;100.00;101240.34;4981250;28;20034;-74
2023/03/03 01:51:42;;;;;;;2.30;2.10;;;;;;;-0.23;100.00;101247.31;4982944;28;20478;-71
2023/03/03 01:54:17;;;;;;;4.55;3.08;;;;;;;-0.49;100.00;101238.25;4982448;28;20049;-71
2023/03/03 01:56:43;;;;;;;1.87;1.77;;;;;;;-0.56;100.00;101251.72;4989661;28;20046;-71
2023/03/03 01:59:22;;;;;;;4.57;2.23;;;;;;;-0.56;100.00;101251.72;4990331;28;20382;-71
2023/03/03 02:01:48;;;;;;;3.23;2.17;;;;;;;-0.62;100.00;101256.63;4985861;28;20033;-72
2023/03/03 02:04:14;;;;;;;1.50;1.40;;;;;;;-0.56;100.00;101259.50;4982583;28;20046;-71
2023/03/03 02:06:44;;;;;;;1.70;1.60;;;;;;;-0.58;100.00;101253.34;4990523;28;20038;-71
2023/03/03 02:09:29;;;;;;;1.77;1.67;;;;;;;-0.65;100.00;101255.59;4980299;28;20062;-71
2023/03/03 02:11:59;;;;;;;2.03;1.90;;;;;;;-0.58;100.00;101250.75;4981551;28;20043;-71
2023/03/03 02:14:24;;;;;;;4.47;4.17;;;;;;;-0.62;100.00;101243.66;4980878;28;20042;-71
2023/03/03 02:16:50;;;;;;;1.80;1.70;;;;;;;-0.62;100.00;101246.25;4983351;28;20051;-71
2023/03/03 02:19:26;;;;;;;1.83;1.73;;;;;;;-0.63;100.00;101257.41;4980476;28;20036;-71
2023/03/03 02:21:52;;;;;;;2.30;2.13;;;;;;;-0.77;100.00;101272.25;4982594;28;20125;-71
2023/03/03 02:24:37;;;;;;;2.13;1.93;;;;;;;-0.83;100.00;101264.19;4983754;28;20117;-71
2023/03/03 02:27:03;;;;;;;2.40;1.83;;;;;;;-1.06;100.00;101265.56;4988360;28;20026;-71
2023/03/03 02:29:29;;;;;;;2.00;1.80;;;;;;;-1.04;100.00;101270.84;4979607;28;20066;-71
2023/03/03 02:31:56;;;;;;;1.87;1.73;;;;;;;-1.06;100.00;101270.75;4984603;28;20038;-71
2023/03/03 02:34:21;;;;;;;6.43;6.03;;;;;;;-0.95;100.00;101269.59;4979461;28;20491;-72
2023/03/03 02:36:46;;;;;;;3.87;3.60;;;;;;;-0.79;100.00;101266.09;4988428;28;20475;-72
2023/03/03 02:39:18;;;;;;;3.27;3.07;;;;;;;-0.75;100.00;101255.09;4978687;28;20035;-72
2023/03/03 02:41:58;;;;;;;2.37;2.17;;;;;;;-0.69;100.00;101259.69;4983673;28;20489;-72
2023/03/03 02:44:31;;;;;;;3.80;3.60;;;;;;;-0.55;100.00;101253.53;4981890;28;20038;-72
2023/03/03 02:46:57;;;;;;;2.50;2.30;;;;;;;-0.56;100.00;101254.31;4982468;28;20058;-72
2023/03/03 02:49:26;;;;;;;2.20;2.10;;;;;;;-0.57;100.00;101255.16;4979421;28;20031;-72
2023/03/03 02:51:52;;;;;;;2.60;2.40;;;;;;;-0.58;100.00;101232.59;4988532;28;20183;-72
2023/03/03 02:54:19;;;;;;;2.30;2.10;;;;;;;-0.40;100.00;101242.13;4992124;28;20117;-72
2023/03/03 02:56:45;;;;;;;2.23;2.07;;;;;;;-0.37;100.00;101247.44;4988102;28;20070;-72
2023/03/03 02:59:11;;;;;;;2.93;2.73;;;;;;;-0.45;100.00;101240.22;4985828;28;20069;-72
2023/03/03 03:01:42;;;;;;;1.60;1.50;;;;;;;-0.38;100.00;101232.72;4986910;28;20501;-72
2023/03/03 03:04:14;;;;;;;1.73;1.63;;;;;;;-0.26;100.00;101242.00;4983747;28;20078;-72
2023/03/03 03:06:42;;;;;;;2.03;1.90;;;;;;;-0.22;100.00;101241.31;4991533;28;20101;-72
2023/03/03 03:09:10;;;;;;;1.80;1.70;;;;;;;-0.22;100.00;101243.03;4985540;28;20026;-72
2023/03/03 03:11:36;;;;;;;2.33;2.13;;;;;;;-0.30;100.00;101245.25;4987096;28;20066;-72
2023/03/03 03:14:03;;;;;;;2.40;2.20;;;;;;;-0.35;100.00;101248.44;4982002;28;20030;-72
2023/03/03 03:16:30;;;;;;;2.40;2.20;;;;;;;-0.46;100.00;101246.19;4986838;28;20041;-72
2023/03/03 03:18:56;;;;;;;3.57;3.37;;;;;;;-0.44;100.00;101246.28;4986422;28;20126;-72
2023/03/03 03:21:22;;;;;;;2.83;2.30;;;;;;;-0.48;100.00;101245.22;4986294;28;20555;-72
2023/03/03 03:23:47;;;;;;;2.57;2.37;;;;;;;-0.60;100.00;101248.91;4984856;28;20037;-73
2023/03/03 03:26:13;;;;;;;2.87;2.67;;;;;;;-0.63;100.00;101253.94;4986809;28;20437;-72
2023/03/03 03:28:38;;;;;;;3.47;3.27;;;;;;;-0.57;100.00;101252.56;4983777;28;20056;-72
2023/03/03 03:31:05;;;;;;;2.20;2.10;;;;;;;-0.54;100.00;101249.22;4985245;28;20413;-73
2023/03/03 03:33:32;;;;;;;2.30;2.10;;;;;;;-0.60;100.00;101255.00;4983906;28;20038;-73
2023/03/03 03:35:58;;;;;;;1.90;1.80;;;;;;;-0.61;100.00;101242.81;4983204;28;20034;-72
2023/03/03 03:38:28;;;;;;;1.80;1.70;;;;;;;-0.58;100.00;101252.47;4986293;28;20342;-73
2023/03/03 03:40:54;;;;;;;2.00;1.90;;;;;;;-0.66;100.00;101254.66;4990156;28;20033;-72
2023/03/03 03:43:20;;;;;;;2.40;2.20;;;;;;;-0.77;100.00;101261.00;4983802;28;20448;-73
2023/03/03 03:45:46;;;;;;;4.27;4.03;;;;;;;-0.76;100.00;101260.19;4986087;28;20473;-72
2023/03/03 03:48:14;;;;;;;2.87;2.67;;;;;;;-0.76;100.00;101263.69;4988634;28;20046;-72
2023/03/03 03:50:40;;;;;;;4.27;3.97;;;;;;;-0.61;100.00;101266.16;4988488;28;20030;-72
2023/03/03 03:53:06;;;;;;;2.40;2.20;;;;;;;-0.66;100.00;101265.03;4991029;28;20042;-72
2023/03/03 03:55:33;;;;;;;5.07;4.77;;;;;;;-0.62;100.00;101266.97;4990101;28;20034;-72
2023/03/03 03:57:59;;;;;;;2.67;2.47;;;;;;;-0.59;100.00;101268.84;4984844;28;20042;-72
2023/03/03 04:00:24;;;;;;;2.97;2.77;;;;;;;-0.56;100.00;101267.28;4984421;28;20030;-72
2023/03/03 04:02:55;;;;;;;4.53;4.23;;;;;;;-0.59;100.00;101272.31;4982248;28;20034;-73
2023/03/03 04:05:20;;;;;;;3.37;3.17;;;;;;;-0.56;100.00;101271.59;4983849;28;20030;-72
2023/03/03 04:07:46;;;;;;;3.00;2.80;;;;;;;-0.50;100.00;101272.78;4987411;28;20500;-72
2023/03/03 04:10:11;;;;;;;3.13;2.93;;;;;;;-0.42;100.00;101280.06;4981680;28;20049;-72
2023/03/03 04:12:37;;;;;;;2.60;2.40;;;;;;;-0.42;100.00;101269.69;4987033;28;20606;-72
2023/03/03 04:15:08;;;;;;;2.30;2.10;;;;;;;-0.28;100.00;101276.47;4982445;28;20035;-72
2023/03/03 04:17:34;;;;;;;2.50;2.30;;;;;;;-0.23;100.00;101275.88;4984093;28;20034;-72
2023/03/03 04:20:01;;;;;;;2.80;2.60;;;;;;;-0.22;100.00;101274.16;4993284;28;20045;-73
2023/03/03 04:22:28;;;;;;;2.53;2.33;;;;;;;-0.35;100.00;101274.38;4991938;28;20037;-73
2023/03/03 04:24:53;;;;;;;2.67;2.47;;;;;;;-0.38;100.00;101282.00;4983471;28;20030;-72
2023/03/03 04:27:19;;;;;;;2.20;2.10;;;;;;;-0.52;100.00;101287.38;4984384;28;20034;-73
2023/03/03 04:29:44;;;;;;;2.30;2.10;;;;;;;-0.66;100.00;101293.56;4981063;28;20034;-72
2023/03/03 04:32:10;;;;;;;2.03;1.90;;;;;;;-0.74;100.00;101284.50;4983703;28;20042;-72
2023/03/03 04:34:36;;;;;;;2.00;1.90;;;;;;;-0.68;100.00;101279.66;4983871;28;20057;-72
2023/03/03 04:37:02;;;;;;;1.80;1.70;;;;;;;-0.66;100.00;101280.59;4989007;28;20027;-73
2023/03/03 04:39:28;;;;;;;3.20;3.00;;;;;;;-0.81;100.00;101284.97;4991402;28;20038;-72
2023/03/03 04:41:54;;;;;;;2.30;2.10;;;;;;;-0.85;100.00;101293.44;4981704;28;20030;-73
2023/03/03 04:44:20;;;;;;;2.17;2.07;;;;;;;-0.85;100.00;101290.84;4980301;28;20058;-73
2023/03/03 04:46:47;;;;;;;2.50;2.30;;;;;;;-0.90;100.00;101296.66;4983973;28;20555;-72
2023/03/03 04:49:12;;;;;;;2.53;2.33;;;;;;;-1.07;100.00;101297.50;4983291;28;20038;-72
2023/03/03 04:51:39;;;;;;;1.90;1.80;;;;;;;-1.26;100.00;101297.28;4981654;28;20396;-72
2023/03/03 04:54:04;;;;;;;2.13;2.03;;;;;;;-1.15;100.00;101289.31;4983124;28;20030;-73
2023/03/03 04:56:30;;;;;;;2.13;2.03;;;;;;;-1.14;100.00;101297.97;4983637;28;20030;-73
2023/03/03 04:58:56;;;;;;;4.97;4.67;;;;;;;-1.11;100.00;101292.94;4981916;28;20045;-72
2023/03/03 05:01:22;;;;;;;2.53;2.33;;;;;;;-1.24;100.00;101303.47;4985039;28;20069;-73
2023/03/03 05:03:47;;;;;;;2.13;2.03;;;;;;;-1.36;100.00;101303.69;4982521;28;20125;-73
2023/03/03 05:06:12;;;;;;;2.10;2.00;;;;;;;-1.41;100.00;101308.63;4983030;28;20465;-72
2023/03/03 05:08:38;;;;;;;2.63;2.43;;;;;;;-1.38;100.00;101301.03;4983598;28;20038;-73
2023/03/03 05:11:03;;;;;;;2.53;2.33;;;;;;;-1.34;100.00;101299.47;4982213;28;20045;-72
2023/03/03 05:13:29;;;;;;;2.63;2.43;;;;;;;-1.30;100.00;101285.00;4984131;28;20039;-72
2023/03/03 05:15:55;;;;;;;2.77;2.57;;;;;;;-1.22;100.00;101281.13;4984422;28;20038;-73
2023/03/03 05:18:24;;;;;;;2.83;2.63;;;;;;;-1.21;100.00;101285.47;4985005;28;20445;-72
2023/03/03 05:20:51;;;;;;;2.93;2.73;;;;;;;-1.24;100.00;101277.56;4982153;28;20121;-73
2023/03/03 05:23:17;;;;;;;2.07;1.97;;;;;;;-1.22;100.00;101276.84;4984568;28;20485;-73
2023/03/03 05:25:43;;;;;;;2.30;2.20;;;;;;;-1.16;100.00;101282.31;4983403;28;20038;-72
2023/03/03 05:28:09;;;;;;;2.13;2.03;;;;;;;-0.99;100.00;101277.16;4984636;28;20038;-73
2023/03/03 05:30:35;;;;;;;2.53;2.33;;;;;;;-1.05;100.00;101280.31;4981039;28;20159;-72
2023/03/03 05:33:01;;;;;;;2.00;1.90;;;;;;;-1.13;100.00;101282.53;4984976;28;20092;-73
2023/03/03 05:35:26;;;;;;;2.13;2.03;;;;;;;-1.09;100.00;101277.50;4980826;28;20038;-72
2023/03/03 05:37:53;;;;;;;2.33;2.17;;;;;;;-1.09;100.00;101275.78;4984320;28;20041;-73
2023/03/03 05:40:19;;;;;;;2.30;2.10;;;;;;;-1.10;100.00;101281.78;4984009;28;20061;-72
2023/03/03 05:42:44;;;;;;;2.03;1.93;;;;;;;-1.06;100.00;101281.13;4982517;28;20077;-72
2023/03/03 05:45:10;;;;;;;2.77;2.57;;;;;;;-1.00;100.00;101289.22;4980329;28;20089;-73
2023/03/03 05:47:35;;;;;;;2.73;2.53;;;;;;;-0.91;100.00;101297.47;4986871;28;20038;-73
2023/03/03 05:50:01;;;;;;;2.10;2.00;;;;;;;-0.99;100.00;101298.78;4980407;28;20038;-72
2023/03/03 05:52:26;;;;;;;2.13;2.03;;;;;;;-1.02;100.00;101287.34;4983856;28;20489;-72
2023/03/03 05:54:51;;;;;;;2.07;1.97;;;;;;;-0.93;100.00;101291.31;4987090;28;20043;-73
2023/03/03 05:57:17;;;;;;;2.13;2.03;;;;;;;-0.92;100.00;101290.53;4984156;28;20039;-72
2023/03/03 05:59:42;;;;;;;1.80;1.70;;;;;;;-0.93;100.00;101282.66;4983302;28;20089;-72
2023/03/03 06:02:07;;;;;;;1.73;1.63;;;;;;;-0.80;100.00;101291.97;4980534;28;20046;-72
2023/03/03 06:04:33;;;;;;;1.83;1.73;;;;;;;-0.69;100.00;101290.81;4984028;28;20085;-72
2023/03/03 06:06:58;;;;;;;2.70;2.50;;;;;;;-0.75;100.00;101290.50;4987612;28;20097;-73
2023/03/03 06:09:25;;;;;;;3.50;3.30;;;;;;;-0.86;100.00;101300.31;4980670;28;20039;-73
2023/03/03 06:11:52;;;;;;;1.80;1.70;;;;;;;-0.83;100.00;101297.88;4982961;28;20519;-73
2023/03/03 06:14:20;;;;;;;1.80;1.70;;;;;;;-0.78;100.00;101292.94;4983817;28;20045;-73
2023/03/03 06:16:46;;;;;;;1.73;1.63;;;;;;;-0.59;100.00;101297.38;4983770;28;20039;-72
2023/03/03 06:19:12;;;;;;;1.67;1.57;;;;;;;-0.54;100.00;101295.91;4981832;28;20077;-72
2023/03/03 06:21:38;;;;;;;1.80;1.70;;;;;;;-0.77;100.00;101308.56;4983559;28;20476;-73
2023/03/03 06:24:04;;;;;;;1.70;1.60;;;;;;;-0.85;100.00;101322.81;4987951;28;20117;-73
2023/03/03 06:26:31;;;;;;;1.40;1.30;;;;;;;-0.96;100.00;101327.44;4987847;28;20037;-72
2023/03/03 06:28:56;;;;;;;1.60;1.50;;;;;;;-0.91;100.00;101336.34;4984828;28;20093;-73
2023/03/03 06:31:21;;;;;;;1.30;1.20;;;;;;;-0.97;100.00;101335.13;4986596;28;20120;-72
2023/03/03 06:33:47;;;;;;;1.40;1.30;;;;;;;-0.98;100.00;101342.00;4985161;28;20087;-73
2023/03/03 06:36:12;;;;;;;1.53;1.43;;;;;;;-1.04;100.00;101336.50;4991940;28;20043;-72
2023/03/03 06:38:37;;;;;;;1.30;1.20;;;;;;;-1.05;100.00;101326.94;4988764;28;20088;-72
2023/03/03 06:41:06;;;;;;;1.40;1.30;;;;;;;-1.11;100.00;101331.81;4984476;28;20034;-73
2023/03/03 06:43:32;;;;;;;1.47;1.37;;;;;;;-1.11;100.00;101344.75;4987192;28;20038;-72
2023/03/03 06:45:57;;;;;;;1.40;1.30;;;;;;;-1.13;100.00;101338.59;4993903;28;20038;-73
2023/03/03 06:48:23;;;;;;;1.30;1.20;;;;;;;-1.03;100.00;101346.06;4987599;28;20061;-72
2023/03/03 06:50:48;;;;;;;1.40;1.30;;;;;;;-1.04;100.00;101339.09;4987103;28;20041;-72
2023/03/03 06:53:15;;;;;;;1.30;1.20;;;;;;;-0.93;100.00;101334.47;4983687;28;20122;-73
2023/03/03 06:55:43;;;;;;;1.30;1.20;;;;;;;-0.80;100.00;101343.81;4983507;28;20489;-73
2023/03/03 06:58:17;;;;;;;1.20;1.10;;;;;;;-0.86;100.00;101343.47;4986682;28;20042;-72
2023/03/03 07:00:45;;;;;;;1.30;1.20;;;;;;;-0.77;100.00;101339.66;4984579;28;20037;-72
2023/03/03 07:03:22;;;;;;;1.20;1.10;;;;;;;-0.66;100.00;101358.38;4986766;28;20037;-72
2023/03/03 07:05:47;;;;;;;1.10;1.10;;;;;;;-0.69;100.00;101353.03;4986782;28;20034;-73
2023/03/03 07:08:19;;;;;;;0.90;0.90;;;;;;;-0.68;100.00;101357.41;4987957;28;20045;-73
2023/03/03 07:10:46;;;;;;;1.17;1.10;;;;;;;-0.63;100.00;101358.50;4985582;28;20099;-72
2023/03/03 07:13:16;;;;;;;1.00;1.00;;;;;;;-0.53;100.00;101365.97;4986818;28;20061;-72
2023/03/03 07:15:42;;;;;;;0.97;0.97;;;;;;;-0.48;100.00;101367.09;4984687;28;20042;-72
2023/03/03 07:18:24;;;;;;;0.80;0.80;;;;;;;-0.35;100.00;101372.94;4986821;28;20038;-73
2023/03/03 07:20:49;;;;;;;0.90;0.90;;;;;;;-0.50;100.00;101371.34;4983406;28;20032;-72
2023/03/03 07:23:24;;;;;;;0.90;0.90;;;;;;;-0.37;100.00;101374.53;4986800;28;20376;-73
2023/03/03 07:25:51;;;;;;;0.83;0.83;;;;;;;-0.58;100.00;101364.84;4984779;28;20492;-73
2023/03/03 07:28:28;;;;;;;0.90;0.90;;;;;;;-0.58;100.00;101357.06;4985825;28;20440;-73
2023/03/03 07:30:55;;;;;;;0.90;0.90;;;;;;;-0.54;100.00;101356.41;4982713;28;20482;-72
2023/03/03 07:33:28;;;;;;;0.90;0.90;;;;;;;-0.38;100.00;101358.09;4986253;28;20145;-72
2023/03/03 07:35:58;;;;;;;0.90;0.90;;;;;;;-0.34;100.00;101362.66;4985648;28;20051;-72
2023/03/03 07:38:44;;;;;;;0.90;0.90;;;;;;;-0.48;100.00;101361.91;4986359;28;20034;-72
2023/03/03 07:41:22;;;;;;;0.80;0.80;;;;;;;-0.48;100.00;101363.63;4983693;28;20572;-72
2023/03/03 07:43:53;;;;;;;0.90;0.90;;;;;;;-0.35;100.00;101360.84;4983706;28;20089;-72
2023/03/03 07:46:35;;;;;;;0.80;0.80;;;;;;;-0.29;100.00;101360.25;4988495;28;20417;-72
2023/03/03 07:49:14;;;;;;;1.05;1.05;;;;;;;-0.11;100.00;101360.31;4984326;28;20477;-73
2023/03/03 07:51:42;;;;;;;0.83;0.83;;;;;;;-0.28;100.00;101368.13;4982680;28;20030;-73
2023/03/03 07:54:27;;;;;;;0.83;0.83;;;;;;;-0.20;100.00;101365.94;4985713;28;20455;-72
2023/03/03 07:56:56;;;;;;;0.90;0.90;;;;;;;-0.06;100.00;101370.09;4987873;28;20031;-73
2023/03/03 07:59:24;;;;;;;0.90;0.90;;;;;;;-0.07;100.00;101372.63;4988543;28;20426;-73
2023/03/03 08:01:57;;;;;;;0.80;0.80;;;;;;;-0.12;100.00;101380.19;4982541;28;20050;-72
2023/03/03 08:04:36;;;;;;;0.90;0.90;;;;;;;-0.10;100.00;101382.88;4988159;28;20088;-72
2023/03/03 08:07:02;;;;;;;0.90;0.90;;;;;;;-0.26;100.00;101387.28;4986204;28;20042;-72
2023/03/03 08:09:38;;;;;;;0.90;0.90;;;;;;;-0.28;100.00;101380.22;4985235;28;20409;-72
2023/03/03 08:12:07;;;;;;;0.90;0.90;;;;;;;-0.30;100.00;101380.13;4983154;28;20050;-72
2023/03/03 08:14:35;;;;;;;1.00;1.00;;;;;;;-0.31;100.00;101382.66;4984138;28;20038;-72
2023/03/03 08:17:06;;;;;;;0.97;0.97;;;;;;;-0.43;100.00;101394.97;4987685;28;20141;-72
2023/03/03 08:19:33;;;;;;;0.93;0.93;;;;;;;-0.41;100.00;101398.56;4982645;28;20073;-72
2023/03/03 08:22:23;;;;;;;0.80;0.80;;;;;;;-0.40;100.00;101397.72;4985007;28;20069;-72
2023/03/03 08:24:49;;;;;;;0.80;0.80;;;;;;;-0.45;100.00;101405.25;4984531;28;20038;-72
2023/03/03 08:27:14;;;;;;;0.80;0.80;;;;;;;-0.44;100.00;101407.06;4985660;28;20047;-73
2023/03/03 08:29:39;;;;;;;1.00;1.00;;;;;;;-0.37;100.00;101414.34;4985339;28;20066;-73
2023/03/03 08:32:04;;;;;;;0.73;0.73;;;;;;;-0.38;100.00;101402.19;4984577;28;20081;-72
2023/03/03 08:34:30;;;;;;;0.90;0.90;;;;;;;-0.26;100.00;101394.16;4982626;28;20062;-72
2023/03/03 08:36:57;;;;;;;0.80;0.80;;;;;;;-0.12;100.00;101389.66;4987748;28;20044;-72
2023/03/03 08:39:22;;;;;;;0.90;0.90;;;;;;;-0.08;100.00;101386.41;4985245;28;20030;-72
2023/03/03 08:41:48;;;;;;;0.80;0.80;;;;;;;0.04;100.00;101389.63;4984734;28;20503;-72
2023/03/03 08:44:13;;;;;;;0.90;0.90;;;;;;;0.15;100.00;101392.75;4981991;28;20057;-72
2023/03/03 08:46:39;;;;;;;0.90;0.90;;;;;;;0.08;100.00;101388.97;4989541;28;20038;-72
2023/03/03 08:49:04;;;;;;;0.80;0.80;;;;;;;0.14;100.00;101393.56;4981149;28;20039;-75
2023/03/03 08:51:30;;;;;;;0.90;0.90;;;;;;;0.15;100.00;101395.34;4985221;28;20039;-73
2023/03/03 08:53:55;;;;;;;1.00;1.00;;;;;;;0.17;100.00;101398.91;4985087;28;20045;-72
2023/03/03 08:56:20;;;;;;;0.90;0.90;;;;;;;0.11;100.00;101398.63;4982774;28;20038;-72
2023/03/03 08:58:46;;;;;;;0.90;0.90;;;;;;;0.25;100.00;101395.00;4981096;28;20062;-73
2023/03/03 09:01:17;;;;;;;1.00;1.00;;;;;;;0.37;100.00;101412.91;4984838;28;20097;-73
2023/03/03 09:03:43;;;;;;;0.95;0.95;;;;;;;0.43;100.00;101414.06;4984239;28;20085;-73
2023/03/03 09:06:09;;;;;;;0.97;0.97;;;;;;;0.46;100.00;101412.44;4982366;28;20031;-72
2023/03/03 09:08:34;;;;;;;1.03;1.03;;;;;;;0.49;100.00;101422.97;4982383;28;20069;-72
2023/03/03 09:11:01;;;;;;;0.90;0.90;;;;;;;0.48;100.00;101418.59;4983331;28;20064;-72
2023/03/03 09:13:29;;;;;;;1.00;1.00;;;;;;;0.53;100.00;101415.41;4983756;28;20050;-72
2023/03/03 09:15:55;;;;;;;1.00;1.00;;;;;;;0.63;100.00;101414.16;4982454;28;20039;-73
2023/03/03 09:18:37;;;;;;;0.90;0.90;;;;;;;0.67;100.00;101412.59;4984505;28;20046;-72
2023/03/03 09:21:19;;;;;;;1.00;1.00;;;;;;;0.77;100.00;101407.91;4981173;28;20081;-72
2023/03/03 09:23:59;;;;;;;0.90;0.90;;;;;;;0.80;100.00;101405.44;4981956;28;20126;-72
2023/03/03 09:26:44;;;;;;;1.07;1.07;;;;;;;0.83;100.00;101402.97;4982267;28;20376;-72
2023/03/03 09:29:12;;;;;;;1.10;1.08;;;;;;;0.83;100.00;101390.00;4980509;28;20038;-72
2023/03/03 09:31:41;;;;;;;14.17;13.30;;;;;;;0.96;100.00;101398.38;4980717;28;20042;-73
2023/03/03 09:34:41;;;;;;;6.00;5.50;;;;;;;0.98;100.00;101394.13;4983739;28;20512;-72
2023/03/03 09:37:25;;;;;;;6.37;5.87;;;;;;;1.04;100.00;101394.41;4966290;28;20050;-72
2023/03/03 09:39:53;;;;;;;6.07;5.57;;;;;;;1.11;100.00;101396.47;4980643;28;20094;-73
2023/03/03 09:42:43;;;;;;;6.40;5.90;;;;;;;1.19;100.00;101395.13;4982437;28;20042;-72
2023/03/03 09:45:27;;;;;;;5.80;5.30;;;;;;;1.18;100.00;101408.94;4980743;28;20037;-72
2023/03/03 09:48:16;;;;;;;6.50;5.97;;;;;;;1.05;100.00;101391.91;4984299;28;20037;-72
2023/03/03 09:51:12;;;;;;;6.20;5.60;;;;;;;0.95;100.00;101401.81;4982424;28;20448;-72
2023/03/03 09:53:49;;;;;;;6.15;5.65;;;;;;;1.01;100.00;101396.88;4981563;28;20129;-72
2023/03/03 09:56:34;;;;;;;6.10;5.60;;;;;;;1.22;100.00;101402.16;4980415;28;20035;-72
2023/03/03 09:59:25;;;;;;;6.20;5.63;;;;;;;1.11;100.00;101412.06;4982917;28;20649;-72
2023/03/03 10:02:17;;;;;;;6.20;5.70;;;;;;;1.18;100.00;101411.56;4982783;28;20034;-72
2023/03/03 10:05:16;;;;;;;6.70;6.10;;;;;;;1.20;100.00;101411.59;4982467;28;20097;-72
2023/03/03 10:07:59;;;;;;;6.35;5.85;;;;;;;1.25;100.00;101412.69;4987844;28;20420;-72
2023/03/03 10:10:38;;;;;;;;;;;;;;;1.36;100.00;101421.88;4981871;28;20074;-72
2023/03/03 10:13:30;;;;;;;7.15;6.55;;;;;;;1.43;100.00;101426.53;4980500;28;20475;-72
2023/03/03 10:16:07;;;;;;;7.47;6.88;;;;;;;1.40;100.00;101421.22;4983961;28;20043;-72
2023/03/03 10:18:45;;;;;;;7.82;7.20;;;;;;;1.37;100.00;101417.59;4982569;28;20138;-72
2023/03/03 10:21:19;;;;;;;6.20;5.67;;;;;;;1.46;100.00;101417.97;4981224;28;20043;-72
2023/03/03 10:24:05;;;;;;;6.50;5.97;;;;;;;1.69;100.00;101419.00;4980141;28;20149;-72
2023/03/03 10:27:01;;;;;;;6.75;6.22;;;;;;;1.85;100.00;101421.44;4983715;28;20072;-72
2023/03/03 10:29:51;;;;;;;5.60;5.10;;;;;;;1.69;100.00;101426.81;4982919;28;20136;-72
2023/03/03 10:32:34;;;;;;;5.13;4.70;;;;;;;1.52;100.00;101431.28;4982581;28;20080;-72
2023/03/03 10:35:23;;;;;;;5.32;4.85;;;;;;;1.43;100.00;101428.25;4980860;28;20037;-72
2023/03/03 10:38:09;;;;;;;5.50;5.00;;;;;;;1.66;100.00;101430.19;4984134;28;20182;-73
2023/03/03 10:40:53;;;;;;;4.70;4.30;;;;;;;1.83;100.00;101436.09;4980099;28;20035;-73
2023/03/03 10:43:46;;;;;;;4.82;4.38;;;;;;;1.43;100.00;101439.53;4981907;28;20038;-73
2023/03/03 10:46:36;;;;;;;5.20;4.70;;;;;;;1.58;100.00;101434.16;4981777;28;20035;-73
2023/03/03 10:49:09;;;;;;;4.68;4.28;;;;;;;1.63;100.00;101421.34;4983259;28;20057;-73
2023/03/03 10:51:43;;;;;;;4.95;4.53;;;;;;;1.91;100.00;101428.63;4981044;28;20045;-73
2023/03/03 10:54:29;;;;;;;5.13;4.72;;;;;;;1.89;100.00;101427.72;4983423;28;20042;-73
2023/03/03 10:57:22;;;;;;;4.53;4.13;;;;;;;1.98;100.00;101428.09;4984076;28;20038;-73
2023/03/03 11:00:23;;;;;;;4.38;3.97;;;;;;;1.84;100.00;101418.81;4983231;28;20066;-73
2023/03/03 11:03:13;;;;;;;5.93;4.20;;;;;;;1.75;100.00;101425.34;4983740;28;20428;-73
2023/03/03 11:05:43;;;;;;;5.53;5.07;;;;;;;1.69;100.00;101421.63;4981535;28;20042;-73
2023/03/03 11:08:40;;;;;;;4.57;4.18;;;;;;;1.50;100.00;101423.41;4986927;28;20042;-73
2023/03/03 11:11:23;;;;;;;4.68;4.28;;;;;;;1.45;100.00;101424.91;4985152;28;20030;-73
2023/03/03 11:13:51;;;;;;;5.60;4.45;;;;;;;1.38;100.00;101422.84;4986104;28;20042;-73
2023/03/03 11:16:35;;;;;;;4.60;4.10;;;;;;;1.47;100.00;101419.78;4983387;28;20047;-73
2023/03/03 11:19:04;;;;;;;4.85;4.35;;;;;;;1.47;100.00;101417.19;4984703;28;20046;-73
2023/03/03 11:21:45;;;;;;;4.55;4.15;;;;;;;1.62;100.00;101407.44;4986984;28;20042;-73
2023/03/03 11:24:37;;;;;;;4.28;3.88;;;;;;;1.66;100.00;101411.97;4983816;28;20038;-73
2023/03/03 11:27:39;;;;;;;4.70;4.30;;;;;;;1.83;100.00;101402.28;4986480;28;20026;-73
2023/03/03 11:30:23;;;;;;;4.30;3.90;;;;;;;2.06;100.00;101402.38;4984294;28;20089;-73
2023/03/03 11:33:03;;;;;;;4.20;3.80;;;;;;;2.17;100.00;101399.41;4986766;28;20447;-73
2023/03/03 11:35:53;;;;;;;4.82;4.43;;;;;;;2.08;100.00;101414.63;4984999;28;20174;-73
2023/03/03 11:38:34;;;;;;;4.40;4.00;;;;;;;2.07;100.00;101402.44;4989338;28;20133;-73